sensor_id;sensor_type;location;lat;lon;timestamp;P1;durP1;ratioP1;P2;durP2;ratioP2
7195;SDS011;3639;51.308;5.624;2023-11-21T00:00:16;20.00;;;10.73;;
7195;SDS011;3639;51.308;5.624;2023-11-21T00:02:42;28.90;;;11.73;;
7195;SDS011;3639;51.308;5.624;2023-11-21T00:05:09;34.43;;;11.43;;
7195;SDS011;3639;51.308;5.624;2023-11-21T00:07:38;25.10;;;11.30;;
7195;SDS011;3639;51.308;5.624;2023-11-21T00:10:04;21.17;;;10.77;;
7195;SDS011;3639;51.308;5.624;2023-11-21T00:12:36;22.23;;;10.53;;
7195;SDS011;3639;51.308;5.624;2023-11-21T00:15:03;26.43;;;12.57;;
7195;SDS011;3639;51.308;5.624;2023-11-21T00:17:35;19.33;;;10.23;;
7195;SDS011;3639;51.308;5.624;2023-11-21T00:20:01;16.73;;;10.40;;
7195;SDS011;3639;51.308;5.624;2023-11-21T00:22:31;22.83;;;10.80;;
7195;SDS011;3639;51.308;5.624;2023-11-21T00:24:57;22.77;;;13.03;;
7195;SDS011;3639;51.308;5.624;2023-11-21T00:27:26;20.93;;;12.77;;
7195;SDS011;3639;51.308;5.624;2023-11-21T00:29:51;25.73;;;13.17;;
7195;SDS011;3639;51.308;5.624;2023-11-21T00:32:17;28.30;;;12.60;;
7195;SDS011;3639;51.308;5.624;2023-11-21T00:34:42;23.17;;;13.03;;
7195;SDS011;3639;51.308;5.624;2023-11-21T00:37:09;26.00;;;13.17;;
7195;SDS011;3639;51.308;5.624;2023-11-21T00:39:34;28.70;;;14.60;;
7195;SDS011;3639;51.308;5.624;2023-11-21T00:42:00;25.00;;;14.90;;
7195;SDS011;3639;51.308;5.624;2023-11-21T00:44:25;25.13;;;14.90;;
7195;SDS011;3639;51.308;5.624;2023-11-21T00:46:51;27.60;;;14.17;;
7195;SDS011;3639;51.308;5.624;2023-11-21T00:49:17;23.67;;;14.10;;
7195;SDS011;3639;51.308;5.624;2023-11-21T00:51:43;28.03;;;14.13;;
7195;SDS011;3639;51.308;5.624;2023-11-21T00:54:08;25.10;;;12.47;;
7195;SDS011;3639;51.308;5.624;2023-11-21T00:56:34;28.80;;;13.60;;
7195;SDS011;3639;51.308;5.624;2023-11-21T00:58:59;27.00;;;13.23;;
7195;SDS011;3639;51.308;5.624;2023-11-21T01:01:25;26.73;;;13.50;;
7195;SDS011;3639;51.308;5.624;2023-11-21T01:03:51;27.67;;;12.80;;
7195;SDS011;3639;51.308;5.624;2023-11-21T01:06:16;24.80;;;13.60;;
7195;SDS011;3639;51.308;5.624;2023-11-21T01:08:43;21.67;;;14.17;;
7195;SDS011;3639;51.308;5.624;2023-11-21T01:11:09;23.93;;;13.50;;
7195;SDS011;3639;51.308;5.624;2023-11-21T01:13:37;23.83;;;13.30;;
7195;SDS011;3639;51.308;5.624;2023-11-21T01:16:06;22.83;;;13.37;;
7195;SDS011;3639;51.308;5.624;2023-11-21T01:18:32;25.00;;;12.80;;
7195;SDS011;3639;51.308;5.624;2023-11-21T01:20:59;26.77;;;14.13;;
7195;SDS011;3639;51.308;5.624;2023-11-21T01:23:25;26.80;;;14.33;;
7195;SDS011;3639;51.308;5.624;2023-11-21T01:25:51;20.10;;;13.03;;
7195;SDS011;3639;51.308;5.624;2023-11-21T01:28:17;20.23;;;12.47;;
7195;SDS011;3639;51.308;5.624;2023-11-21T01:30:44;23.33;;;12.73;;
7195;SDS011;3639;51.308;5.624;2023-11-21T01:33:09;23.57;;;13.17;;
7195;SDS011;3639;51.308;5.624;2023-11-21T01:35:35;22.13;;;13.03;;
7195;SDS011;3639;51.308;5.624;2023-11-21T01:38:01;26.63;;;17.50;;
7195;SDS011;3639;51.308;5.624;2023-11-21T01:40:26;25.73;;;14.70;;
7195;SDS011;3639;51.308;5.624;2023-11-21T01:42:53;24.50;;;15.00;;
7195;SDS011;3639;51.308;5.624;2023-11-21T01:45:19;23.70;;;14.23;;
7195;SDS011;3639;51.308;5.624;2023-11-21T01:47:45;22.73;;;14.83;;
7195;SDS011;3639;51.308;5.624;2023-11-21T01:50:13;22.03;;;13.27;;
7195;SDS011;3639;51.308;5.624;2023-11-21T01:52:41;25.73;;;15.20;;
7195;SDS011;3639;51.308;5.624;2023-11-21T01:55:08;24.43;;;14.87;;
7195;SDS011;3639;51.308;5.624;2023-11-21T01:57:35;25.83;;;14.10;;
7195;SDS011;3639;51.308;5.624;2023-11-21T02:00:04;22.57;;;14.37;;
7195;SDS011;3639;51.308;5.624;2023-11-21T02:02:47;22.93;;;13.93;;
7195;SDS011;3639;51.308;5.624;2023-11-21T02:05:17;27.50;;;14.70;;
7195;SDS011;3639;51.308;5.624;2023-11-21T02:07:43;28.40;;;15.40;;
7195;SDS011;3639;51.308;5.624;2023-11-21T02:10:10;28.80;;;15.80;;
7195;SDS011;3639;51.308;5.624;2023-11-21T02:12:39;33.03;;;15.93;;
7195;SDS011;3639;51.308;5.624;2023-11-21T02:15:07;31.37;;;16.00;;
7195;SDS011;3639;51.308;5.624;2023-11-21T02:17:42;28.10;;;14.57;;
7195;SDS011;3639;51.308;5.624;2023-11-21T02:20:11;25.23;;;14.87;;
7195;SDS011;3639;51.308;5.624;2023-11-21T02:22:40;29.97;;;16.47;;
7195;SDS011;3639;51.308;5.624;2023-11-21T02:25:07;29.13;;;16.27;;
7195;SDS011;3639;51.308;5.624;2023-11-21T02:27:33;26.07;;;15.33;;
7195;SDS011;3639;51.308;5.624;2023-11-21T02:29:59;28.10;;;15.20;;
7195;SDS011;3639;51.308;5.624;2023-11-21T02:32:26;31.70;;;16.70;;
7195;SDS011;3639;51.308;5.624;2023-11-21T02:34:52;27.73;;;17.27;;
7195;SDS011;3639;51.308;5.624;2023-11-21T02:37:20;32.03;;;16.70;;
7195;SDS011;3639;51.308;5.624;2023-11-21T02:39:46;33.57;;;16.40;;
7195;SDS011;3639;51.308;5.624;2023-11-21T02:42:11;31.57;;;16.53;;
7195;SDS011;3639;51.308;5.624;2023-11-21T02:44:37;35.33;;;17.93;;
7195;SDS011;3639;51.308;5.624;2023-11-21T02:47:03;36.70;;;18.17;;
7195;SDS011;3639;51.308;5.624;2023-11-21T02:49:30;36.63;;;17.30;;
7195;SDS011;3639;51.308;5.624;2023-11-21T02:51:55;40.33;;;18.00;;
7195;SDS011;3639;51.308;5.624;2023-11-21T02:54:21;40.17;;;17.87;;
7195;SDS011;3639;51.308;5.624;2023-11-21T02:56:47;55.90;;;20.80;;
7195;SDS011;3639;51.308;5.624;2023-11-21T02:59:14;55.90;;;20.70;;
7195;SDS011;3639;51.308;5.624;2023-11-21T03:01:41;59.43;;;21.33;;
7195;SDS011;3639;51.308;5.624;2023-11-21T03:04:06;60.20;;;21.67;;
7195;SDS011;3639;51.308;5.624;2023-11-21T03:06:32;61.17;;;20.93;;
7195;SDS011;3639;51.308;5.624;2023-11-21T03:08:58;66.50;;;21.67;;
7195;SDS011;3639;51.308;5.624;2023-11-21T03:11:24;57.00;;;21.20;;
7195;SDS011;3639;51.308;5.624;2023-11-21T03:13:50;73.07;;;22.27;;
7195;SDS011;3639;51.308;5.624;2023-11-21T03:16:15;66.17;;;22.27;;
7195;SDS011;3639;51.308;5.624;2023-11-21T03:18:41;70.47;;;23.67;;
7195;SDS011;3639;51.308;5.624;2023-11-21T03:21:07;65.10;;;19.93;;
7195;SDS011;3639;51.308;5.624;2023-11-21T03:23:34;63.07;;;22.63;;
7195;SDS011;3639;51.308;5.624;2023-11-21T03:26:00;53.90;;;20.30;;
7195;SDS011;3639;51.308;5.624;2023-11-21T03:28:26;54.40;;;20.83;;
7195;SDS011;3639;51.308;5.624;2023-11-21T03:30:52;59.47;;;20.10;;
7195;SDS011;3639;51.308;5.624;2023-11-21T03:33:18;62.70;;;20.13;;
7195;SDS011;3639;51.308;5.624;2023-11-21T03:35:44;43.50;;;19.07;;
7195;SDS011;3639;51.308;5.624;2023-11-21T03:38:10;52.80;;;19.30;;
7195;SDS011;3639;51.308;5.624;2023-11-21T03:40:35;47.83;;;20.13;;
7195;SDS011;3639;51.308;5.624;2023-11-21T03:43:01;62.90;;;20.73;;
7195;SDS011;3639;51.308;5.624;2023-11-21T03:45:27;59.40;;;19.50;;
7195;SDS011;3639;51.308;5.624;2023-11-21T03:47:52;62.17;;;21.30;;
7195;SDS011;3639;51.308;5.624;2023-11-21T03:50:21;55.47;;;19.93;;
7195;SDS011;3639;51.308;5.624;2023-11-21T03:52:47;45.77;;;19.53;;
7195;SDS011;3639;51.308;5.624;2023-11-21T03:55:12;65.97;;;19.17;;
7195;SDS011;3639;51.308;5.624;2023-11-21T03:57:38;58.90;;;17.97;;
7195;SDS011;3639;51.308;5.624;2023-11-21T04:00:03;63.67;;;18.40;;
7195;SDS011;3639;51.308;5.624;2023-11-21T04:02:29;58.83;;;18.90;;
7195;SDS011;3639;51.308;5.624;2023-11-21T04:04:56;53.77;;;18.33;;
7195;SDS011;3639;51.308;5.624;2023-11-21T04:07:22;69.83;;;19.30;;
7195;SDS011;3639;51.308;5.624;2023-11-21T04:09:47;63.57;;;17.90;;
7195;SDS011;3639;51.308;5.624;2023-11-21T04:12:13;65.27;;;18.13;;
7195;SDS011;3639;51.308;5.624;2023-11-21T04:14:39;65.23;;;19.40;;
7195;SDS011;3639;51.308;5.624;2023-11-21T04:17:04;44.60;;;17.20;;
7195;SDS011;3639;51.308;5.624;2023-11-21T04:19:30;60.67;;;17.97;;
7195;SDS011;3639;51.308;5.624;2023-11-21T04:21:55;43.00;;;15.63;;
7195;SDS011;3639;51.308;5.624;2023-11-21T04:24:21;46.40;;;18.03;;
7195;SDS011;3639;51.308;5.624;2023-11-21T04:26:47;65.33;;;18.23;;
7195;SDS011;3639;51.308;5.624;2023-11-21T04:29:12;41.13;;;16.57;;
7195;SDS011;3639;51.308;5.624;2023-11-21T04:31:38;51.27;;;16.70;;
7195;SDS011;3639;51.308;5.624;2023-11-21T04:34:03;38.07;;;16.87;;
7195;SDS011;3639;51.308;5.624;2023-11-21T04:36:29;41.67;;;16.30;;
7195;SDS011;3639;51.308;5.624;2023-11-21T04:38:55;46.17;;;17.47;;
7195;SDS011;3639;51.308;5.624;2023-11-21T04:41:21;54.97;;;15.97;;
7195;SDS011;3639;51.308;5.624;2023-11-21T04:43:47;39.13;;;14.90;;
7195;SDS011;3639;51.308;5.624;2023-11-21T04:46:13;52.43;;;15.67;;
7195;SDS011;3639;51.308;5.624;2023-11-21T04:48:38;56.90;;;17.27;;
7195;SDS011;3639;51.308;5.624;2023-11-21T04:51:04;57.60;;;16.27;;
7195;SDS011;3639;51.308;5.624;2023-11-21T04:53:30;44.13;;;15.97;;
7195;SDS011;3639;51.308;5.624;2023-11-21T04:55:55;52.17;;;15.17;;
7195;SDS011;3639;51.308;5.624;2023-11-21T04:58:21;53.53;;;16.53;;
7195;SDS011;3639;51.308;5.624;2023-11-21T05:00:46;59.20;;;17.93;;
7195;SDS011;3639;51.308;5.624;2023-11-21T05:03:12;47.40;;;15.23;;
7195;SDS011;3639;51.308;5.624;2023-11-21T05:05:37;46.70;;;16.03;;
7195;SDS011;3639;51.308;5.624;2023-11-21T05:08:03;50.77;;;16.07;;
7195;SDS011;3639;51.308;5.624;2023-11-21T05:10:29;45.50;;;15.57;;
7195;SDS011;3639;51.308;5.624;2023-11-21T05:12:55;60.03;;;16.17;;
7195;SDS011;3639;51.308;5.624;2023-11-21T05:15:21;59.40;;;16.37;;
7195;SDS011;3639;51.308;5.624;2023-11-21T05:17:46;51.37;;;15.07;;
7195;SDS011;3639;51.308;5.624;2023-11-21T05:20:15;51.40;;;14.93;;
7195;SDS011;3639;51.308;5.624;2023-11-21T05:22:48;42.60;;;15.20;;
7195;SDS011;3639;51.308;5.624;2023-11-21T05:25:14;54.90;;;16.90;;
7195;SDS011;3639;51.308;5.624;2023-11-21T05:27:43;44.43;;;16.17;;
7195;SDS011;3639;51.308;5.624;2023-11-21T05:30:09;39.23;;;15.07;;
7195;SDS011;3639;51.308;5.624;2023-11-21T05:32:37;42.90;;;15.40;;
7195;SDS011;3639;51.308;5.624;2023-11-21T05:35:03;43.53;;;16.87;;
7195;SDS011;3639;51.308;5.624;2023-11-21T05:37:34;53.63;;;15.63;;
7195;SDS011;3639;51.308;5.624;2023-11-21T05:40:00;50.40;;;15.10;;
7195;SDS011;3639;51.308;5.624;2023-11-21T05:42:30;33.40;;;14.07;;
7195;SDS011;3639;51.308;5.624;2023-11-21T05:44:56;45.93;;;16.57;;
7195;SDS011;3639;51.308;5.624;2023-11-21T05:47:24;38.80;;;15.53;;
7195;SDS011;3639;51.308;5.624;2023-11-21T05:49:51;42.97;;;17.10;;
7195;SDS011;3639;51.308;5.624;2023-11-21T05:52:17;41.73;;;15.37;;
7195;SDS011;3639;51.308;5.624;2023-11-21T05:54:43;39.83;;;14.77;;
7195;SDS011;3639;51.308;5.624;2023-11-21T05:57:09;41.43;;;15.30;;
7195;SDS011;3639;51.308;5.624;2023-11-21T05:59:34;39.27;;;15.03;;
7195;SDS011;3639;51.308;5.624;2023-11-21T06:02:03;40.20;;;14.63;;
7195;SDS011;3639;51.308;5.624;2023-11-21T06:04:30;38.93;;;14.70;;
7195;SDS011;3639;51.308;5.624;2023-11-21T06:06:56;41.53;;;15.83;;
7195;SDS011;3639;51.308;5.624;2023-11-21T06:09:21;43.13;;;14.97;;
7195;SDS011;3639;51.308;5.624;2023-11-21T06:11:47;42.30;;;15.40;;
7195;SDS011;3639;51.308;5.624;2023-11-21T06:14:13;41.63;;;14.57;;
7195;SDS011;3639;51.308;5.624;2023-11-21T06:16:40;40.17;;;14.77;;
7195;SDS011;3639;51.308;5.624;2023-11-21T06:19:05;49.43;;;16.43;;
7195;SDS011;3639;51.308;5.624;2023-11-21T06:21:31;47.90;;;16.43;;
7195;SDS011;3639;51.308;5.624;2023-11-21T06:23:57;42.10;;;15.47;;
7195;SDS011;3639;51.308;5.624;2023-11-21T06:26:23;46.10;;;17.23;;
7195;SDS011;3639;51.308;5.624;2023-11-21T06:28:49;43.27;;;15.73;;
7195;SDS011;3639;51.308;5.624;2023-11-21T06:31:16;45.23;;;15.50;;
7195;SDS011;3639;51.308;5.624;2023-11-21T06:33:42;43.10;;;16.00;;
7195;SDS011;3639;51.308;5.624;2023-11-21T06:36:08;44.20;;;16.33;;
7195;SDS011;3639;51.308;5.624;2023-11-21T06:38:36;40.93;;;15.23;;
7195;SDS011;3639;51.308;5.624;2023-11-21T06:41:02;46.83;;;16.67;;
7195;SDS011;3639;51.308;5.624;2023-11-21T06:43:29;39.57;;;15.23;;
7195;SDS011;3639;51.308;5.624;2023-11-21T06:45:56;46.60;;;16.43;;
7195;SDS011;3639;51.308;5.624;2023-11-21T06:48:22;50.63;;;16.70;;
7195;SDS011;3639;51.308;5.624;2023-11-21T06:50:47;48.10;;;15.37;;
7195;SDS011;3639;51.308;5.624;2023-11-21T06:53:13;45.87;;;16.93;;
7195;SDS011;3639;51.308;5.624;2023-11-21T06:55:38;52.27;;;17.77;;
7195;SDS011;3639;51.308;5.624;2023-11-21T06:58:04;42.93;;;15.90;;
7195;SDS011;3639;51.308;5.624;2023-11-21T07:00:30;59.97;;;18.80;;
7195;SDS011;3639;51.308;5.624;2023-11-21T07:02:56;47.77;;;16.30;;
7195;SDS011;3639;51.308;5.624;2023-11-21T07:05:22;45.33;;;16.30;;
7195;SDS011;3639;51.308;5.624;2023-11-21T07:07:48;50.83;;;17.27;;
7195;SDS011;3639;51.308;5.624;2023-11-21T07:10:14;57.93;;;18.37;;
7195;SDS011;3639;51.308;5.624;2023-11-21T07:12:40;54.50;;;18.57;;
7195;SDS011;3639;51.308;5.624;2023-11-21T07:15:06;57.27;;;17.33;;
7195;SDS011;3639;51.308;5.624;2023-11-21T07:17:34;55.00;;;18.93;;
7195;SDS011;3639;51.308;5.624;2023-11-21T07:20:00;67.83;;;18.97;;
7195;SDS011;3639;51.308;5.624;2023-11-21T07:22:26;68.33;;;18.50;;
7195;SDS011;3639;51.308;5.624;2023-11-21T07:24:52;60.93;;;18.73;;
7195;SDS011;3639;51.308;5.624;2023-11-21T07:27:17;66.77;;;20.23;;
7195;SDS011;3639;51.308;5.624;2023-11-21T07:29:43;60.43;;;17.77;;
7195;SDS011;3639;51.308;5.624;2023-11-21T07:32:09;59.23;;;19.53;;
7195;SDS011;3639;51.308;5.624;2023-11-21T07:34:35;62.10;;;19.07;;
7195;SDS011;3639;51.308;5.624;2023-11-21T07:37:01;58.83;;;19.43;;
7195;SDS011;3639;51.308;5.624;2023-11-21T07:39:27;70.10;;;21.17;;
7195;SDS011;3639;51.308;5.624;2023-11-21T07:41:53;70.03;;;20.10;;
7195;SDS011;3639;51.308;5.624;2023-11-21T07:44:19;66.53;;;20.20;;
7195;SDS011;3639;51.308;5.624;2023-11-21T07:46:45;71.33;;;20.00;;
7195;SDS011;3639;51.308;5.624;2023-11-21T07:49:10;73.87;;;21.47;;
7195;SDS011;3639;51.308;5.624;2023-11-21T07:51:36;65.03;;;20.47;;
7195;SDS011;3639;51.308;5.624;2023-11-21T07:54:02;70.97;;;19.57;;
7195;SDS011;3639;51.308;5.624;2023-11-21T07:56:28;75.53;;;21.53;;
7195;SDS011;3639;51.308;5.624;2023-11-21T07:58:53;82.73;;;21.57;;
7195;SDS011;3639;51.308;5.624;2023-11-21T08:01:19;70.17;;;19.70;;
7195;SDS011;3639;51.308;5.624;2023-11-21T08:03:44;87.37;;;21.80;;
7195;SDS011;3639;51.308;5.624;2023-11-21T08:06:10;83.07;;;20.67;;
7195;SDS011;3639;51.308;5.624;2023-11-21T08:08:37;68.77;;;20.63;;
7195;SDS011;3639;51.308;5.624;2023-11-21T08:11:02;85.30;;;21.13;;
7195;SDS011;3639;51.308;5.624;2023-11-21T08:13:28;66.77;;;18.67;;
7195;SDS011;3639;51.308;5.624;2023-11-21T08:15:57;76.23;;;20.67;;
7195;SDS011;3639;51.308;5.624;2023-11-21T08:18:27;72.63;;;18.83;;
7195;SDS011;3639;51.308;5.624;2023-11-21T08:20:54;67.77;;;18.57;;
7195;SDS011;3639;51.308;5.624;2023-11-21T08:23:20;76.63;;;19.20;;
7195;SDS011;3639;51.308;5.624;2023-11-21T08:25:45;64.73;;;19.50;;
7195;SDS011;3639;51.308;5.624;2023-11-21T08:28:11;71.23;;;19.90;;
7195;SDS011;3639;51.308;5.624;2023-11-21T08:30:41;73.90;;;21.30;;
7195;SDS011;3639;51.308;5.624;2023-11-21T08:33:07;64.00;;;20.67;;
7195;SDS011;3639;51.308;5.624;2023-11-21T08:35:36;70.70;;;20.27;;
7195;SDS011;3639;51.308;5.624;2023-11-21T08:38:02;61.57;;;18.17;;
7195;SDS011;3639;51.308;5.624;2023-11-21T08:40:28;60.93;;;19.27;;
7195;SDS011;3639;51.308;5.624;2023-11-21T08:42:54;65.97;;;20.17;;
7195;SDS011;3639;51.308;5.624;2023-11-21T08:45:23;70.70;;;21.07;;
7195;SDS011;3639;51.308;5.624;2023-11-21T08:47:50;82.33;;;19.90;;
7195;SDS011;3639;51.308;5.624;2023-11-21T08:50:16;77.37;;;20.00;;
7195;SDS011;3639;51.308;5.624;2023-11-21T08:52:41;61.07;;;21.17;;
7195;SDS011;3639;51.308;5.624;2023-11-21T08:55:07;73.57;;;21.03;;
7195;SDS011;3639;51.308;5.624;2023-11-21T08:57:36;67.97;;;20.00;;
7195;SDS011;3639;51.308;5.624;2023-11-21T09:00:03;65.70;;;19.63;;
7195;SDS011;3639;51.308;5.624;2023-11-21T09:02:32;61.17;;;19.30;;
7195;SDS011;3639;51.308;5.624;2023-11-21T09:04:59;71.50;;;20.53;;
7195;SDS011;3639;51.308;5.624;2023-11-21T09:07:28;71.97;;;20.63;;
7195;SDS011;3639;51.308;5.624;2023-11-21T09:09:54;76.83;;;20.30;;
7195;SDS011;3639;51.308;5.624;2023-11-21T09:12:19;61.50;;;21.03;;
7195;SDS011;3639;51.308;5.624;2023-11-21T09:14:45;70.63;;;20.10;;
7195;SDS011;3639;51.308;5.624;2023-11-21T09:17:11;67.37;;;21.17;;
7195;SDS011;3639;51.308;5.624;2023-11-21T09:19:37;70.37;;;21.03;;
7195;SDS011;3639;51.308;5.624;2023-11-21T09:22:03;82.17;;;23.07;;
7195;SDS011;3639;51.308;5.624;2023-11-21T09:24:30;76.30;;;22.07;;
7195;SDS011;3639;51.308;5.624;2023-11-21T09:26:56;73.17;;;23.07;;
7195;SDS011;3639;51.308;5.624;2023-11-21T09:29:22;71.73;;;20.93;;
7195;SDS011;3639;51.308;5.624;2023-11-21T09:31:47;66.27;;;21.17;;
7195;SDS011;3639;51.308;5.624;2023-11-21T09:34:14;68.47;;;21.50;;
7195;SDS011;3639;51.308;5.624;2023-11-21T09:36:40;62.33;;;20.70;;
7195;SDS011;3639;51.308;5.624;2023-11-21T09:39:06;65.67;;;22.77;;
7195;SDS011;3639;51.308;5.624;2023-11-21T09:41:43;67.67;;;22.30;;
7195;SDS011;3639;51.308;5.624;2023-11-21T09:44:14;71.27;;;22.73;;
7195;SDS011;3639;51.308;5.624;2023-11-21T09:46:43;71.23;;;23.07;;
7195;SDS011;3639;51.308;5.624;2023-11-21T09:49:13;66.70;;;20.83;;
7195;SDS011;3639;51.308;5.624;2023-11-21T09:51:42;73.00;;;21.87;;
7195;SDS011;3639;51.308;5.624;2023-11-21T09:54:08;69.33;;;21.90;;
7195;SDS011;3639;51.308;5.624;2023-11-21T09:56:37;68.30;;;22.43;;
7195;SDS011;3639;51.308;5.624;2023-11-21T09:59:03;82.33;;;23.33;;
7195;SDS011;3639;51.308;5.624;2023-11-21T10:01:34;73.10;;;22.03;;
7195;SDS011;3639;51.308;5.624;2023-11-21T10:04:02;80.67;;;23.20;;
7195;SDS011;3639;51.308;5.624;2023-11-21T10:06:28;71.17;;;22.93;;
7195;SDS011;3639;51.308;5.624;2023-11-21T10:08:55;62.43;;;20.90;;
7195;SDS011;3639;51.308;5.624;2023-11-21T10:11:21;72.30;;;23.70;;
7195;SDS011;3639;51.308;5.624;2023-11-21T10:13:51;66.00;;;22.23;;
7195;SDS011;3639;51.308;5.624;2023-11-21T10:16:19;67.03;;;22.17;;
7195;SDS011;3639;51.308;5.624;2023-11-21T10:18:47;70.13;;;22.50;;
7195;SDS011;3639;51.308;5.624;2023-11-21T10:21:17;65.83;;;22.87;;
7195;SDS011;3639;51.308;5.624;2023-11-21T10:23:43;62.60;;;20.90;;
7195;SDS011;3639;51.308;5.624;2023-11-21T10:26:09;62.60;;;20.77;;
7195;SDS011;3639;51.308;5.624;2023-11-21T10:28:41;70.90;;;22.77;;
7195;SDS011;3639;51.308;5.624;2023-11-21T10:31:29;75.87;;;23.13;;
7195;SDS011;3639;51.308;5.624;2023-11-21T10:33:57;63.63;;;21.47;;
7195;SDS011;3639;51.308;5.624;2023-11-21T10:36:39;62.03;;;23.20;;
7195;SDS011;3639;51.308;5.624;2023-11-21T10:39:05;68.93;;;21.77;;
7195;SDS011;3639;51.308;5.624;2023-11-21T10:41:30;71.63;;;22.70;;
7195;SDS011;3639;51.308;5.624;2023-11-21T10:43:56;65.00;;;21.77;;
7195;SDS011;3639;51.308;5.624;2023-11-21T10:46:21;64.50;;;23.60;;
7195;SDS011;3639;51.308;5.624;2023-11-21T10:48:52;65.80;;;22.40;;
7195;SDS011;3639;51.308;5.624;2023-11-21T10:51:20;61.03;;;21.70;;
7195;SDS011;3639;51.308;5.624;2023-11-21T10:53:46;61.53;;;23.63;;
7195;SDS011;3639;51.308;5.624;2023-11-21T10:56:12;67.43;;;22.93;;
7195;SDS011;3639;51.308;5.624;2023-11-21T10:58:44;63.00;;;23.27;;
7195;SDS011;3639;51.308;5.624;2023-11-21T11:01:10;56.47;;;21.63;;
7195;SDS011;3639;51.308;5.624;2023-11-21T11:03:39;60.67;;;22.00;;
7195;SDS011;3639;51.308;5.624;2023-11-21T11:06:06;60.77;;;22.07;;
7195;SDS011;3639;51.308;5.624;2023-11-21T11:08:37;57.17;;;21.17;;
7195;SDS011;3639;51.308;5.624;2023-11-21T11:11:04;59.87;;;22.90;;
7195;SDS011;3639;51.308;5.624;2023-11-21T11:13:31;53.07;;;21.80;;
7195;SDS011;3639;51.308;5.624;2023-11-21T11:16:00;62.33;;;24.00;;
7195;SDS011;3639;51.308;5.624;2023-11-21T11:18:27;56.27;;;22.83;;
7195;SDS011;3639;51.308;5.624;2023-11-21T11:20:54;52.87;;;22.60;;
7195;SDS011;3639;51.308;5.624;2023-11-21T11:26:05;51.30;;;22.63;;
7195;SDS011;3639;51.308;5.624;2023-11-21T11:28:38;54.03;;;20.73;;
7195;SDS011;3639;51.308;5.624;2023-11-21T11:31:28;60.13;;;22.67;;
7195;SDS011;3639;51.308;5.624;2023-11-21T11:34:24;60.80;;;23.03;;
7195;SDS011;3639;51.308;5.624;2023-11-21T11:36:59;49.53;;;20.97;;
7195;SDS011;3639;51.308;5.624;2023-11-21T11:39:28;54.60;;;22.23;;
7195;SDS011;3639;51.308;5.624;2023-11-21T11:41:55;44.93;;;21.07;;
7195;SDS011;3639;51.308;5.624;2023-11-21T11:44:46;51.13;;;19.60;;
7195;SDS011;3639;51.308;5.624;2023-11-21T11:52:53;43.63;;;18.30;;
7195;SDS011;3639;51.308;5.624;2023-11-21T11:55:23;40.60;;;18.43;;
7195;SDS011;3639;51.308;5.624;2023-11-21T12:02:50;45.47;;;18.80;;
7195;SDS011;3639;51.308;5.624;2023-11-21T12:05:20;47.27;;;19.20;;
7195;SDS011;3639;51.308;5.624;2023-11-21T12:10:25;43.70;;;18.67;;
7195;SDS011;3639;51.308;5.624;2023-11-21T12:12:54;47.33;;;18.40;;
7195;SDS011;3639;51.308;5.624;2023-11-21T12:15:21;43.63;;;18.90;;
7195;SDS011;3639;51.308;5.624;2023-11-21T12:17:47;49.63;;;19.23;;
7195;SDS011;3639;51.308;5.624;2023-11-21T12:20:20;40.73;;;18.70;;
7195;SDS011;3639;51.308;5.624;2023-11-21T12:22:47;40.43;;;18.87;;
7195;SDS011;3639;51.308;5.624;2023-11-21T12:25:22;50.90;;;20.43;;
7195;SDS011;3639;51.308;5.624;2023-11-21T12:27:50;49.83;;;21.90;;
7195;SDS011;3639;51.308;5.624;2023-11-21T12:30:17;42.53;;;19.10;;
7195;SDS011;3639;51.308;5.624;2023-11-21T12:32:45;39.23;;;17.73;;
7195;SDS011;3639;51.308;5.624;2023-11-21T12:35:13;37.97;;;17.27;;
7195;SDS011;3639;51.308;5.624;2023-11-21T12:37:41;33.73;;;16.57;;
7195;SDS011;3639;51.308;5.624;2023-11-21T12:40:09;42.23;;;17.70;;
7195;SDS011;3639;51.308;5.624;2023-11-21T12:42:43;39.70;;;17.80;;
7195;SDS011;3639;51.308;5.624;2023-11-21T12:47:44;34.77;;;16.97;;
7195;SDS011;3639;51.308;5.624;2023-11-21T12:50:12;32.00;;;15.53;;
7195;SDS011;3639;51.308;5.624;2023-11-21T12:52:41;32.53;;;16.30;;
7195;SDS011;3639;51.308;5.624;2023-11-21T12:55:18;39.60;;;16.43;;
7195;SDS011;3639;51.308;5.624;2023-11-21T12:57:50;32.93;;;16.77;;
7195;SDS011;3639;51.308;5.624;2023-11-21T13:00:19;34.20;;;16.27;;
7195;SDS011;3639;51.308;5.624;2023-11-21T13:02:55;38.33;;;16.13;;
7195;SDS011;3639;51.308;5.624;2023-11-21T13:05:27;36.10;;;15.87;;
7195;SDS011;3639;51.308;5.624;2023-11-21T13:07:58;31.73;;;14.97;;
7195;SDS011;3639;51.308;5.624;2023-11-21T13:10:27;40.20;;;17.40;;
7195;SDS011;3639;51.308;5.624;2023-11-21T13:12:59;38.90;;;16.63;;
7195;SDS011;3639;51.308;5.624;2023-11-21T13:15:29;35.80;;;17.40;;
7195;SDS011;3639;51.308;5.624;2023-11-21T13:17:56;44.17;;;19.27;;
7195;SDS011;3639;51.308;5.624;2023-11-21T13:20:23;44.60;;;20.47;;
7195;SDS011;3639;51.308;5.624;2023-11-21T13:22:50;44.40;;;20.03;;
7195;SDS011;3639;51.308;5.624;2023-11-21T13:25:22;49.93;;;24.27;;
7195;SDS011;3639;51.308;5.624;2023-11-21T13:27:48;76.57;;;38.97;;
7195;SDS011;3639;51.308;5.624;2023-11-21T13:30:14;56.43;;;24.67;;
7195;SDS011;3639;51.308;5.624;2023-11-21T13:32:44;48.60;;;22.33;;
7195;SDS011;3639;51.308;5.624;2023-11-21T13:35:16;54.57;;;22.50;;
7195;SDS011;3639;51.308;5.624;2023-11-21T13:38:06;54.83;;;24.83;;
7195;SDS011;3639;51.308;5.624;2023-11-21T13:40:36;50.83;;;21.10;;
7195;SDS011;3639;51.308;5.624;2023-11-21T13:43:08;62.30;;;30.63;;
7195;SDS011;3639;51.308;5.624;2023-11-21T13:45:37;58.83;;;27.27;;
7195;SDS011;3639;51.308;5.624;2023-11-21T13:48:07;60.97;;;26.27;;
7195;SDS011;3639;51.308;5.624;2023-11-21T13:50:42;44.97;;;21.87;;
7195;SDS011;3639;51.308;5.624;2023-11-21T13:53:13;52.73;;;23.40;;
7195;SDS011;3639;51.308;5.624;2023-11-21T13:55:51;49.73;;;22.70;;
7195;SDS011;3639;51.308;5.624;2023-11-21T13:58:22;46.73;;;21.93;;
7195;SDS011;3639;51.308;5.624;2023-11-21T14:00:53;42.47;;;21.70;;
7195;SDS011;3639;51.308;5.624;2023-11-21T14:03:22;42.77;;;20.07;;
7195;SDS011;3639;51.308;5.624;2023-11-21T14:06:03;42.10;;;19.60;;
7195;SDS011;3639;51.308;5.624;2023-11-21T14:08:33;47.87;;;21.47;;
7195;SDS011;3639;51.308;5.624;2023-11-21T14:10:59;42.97;;;20.37;;
7195;SDS011;3639;51.308;5.624;2023-11-21T14:13:28;48.70;;;20.87;;
7195;SDS011;3639;51.308;5.624;2023-11-21T14:15:53;46.53;;;20.53;;
7195;SDS011;3639;51.308;5.624;2023-11-21T14:18:26;43.43;;;21.00;;
7195;SDS011;3639;51.308;5.624;2023-11-21T14:21:15;54.53;;;22.23;;
7195;SDS011;3639;51.308;5.624;2023-11-21T14:23:41;43.83;;;21.87;;
7195;SDS011;3639;51.308;5.624;2023-11-21T14:26:08;42.33;;;19.47;;
7195;SDS011;3639;51.308;5.624;2023-11-21T14:28:33;46.07;;;20.13;;
7195;SDS011;3639;51.308;5.624;2023-11-21T14:31:00;44.03;;;19.33;;
7195;SDS011;3639;51.308;5.624;2023-11-21T14:33:27;44.20;;;21.90;;
7195;SDS011;3639;51.308;5.624;2023-11-21T14:35:52;51.20;;;20.90;;
7195;SDS011;3639;51.308;5.624;2023-11-21T14:38:18;41.70;;;19.83;;
7195;SDS011;3639;51.308;5.624;2023-11-21T14:40:43;41.07;;;20.03;;
7195;SDS011;3639;51.308;5.624;2023-11-21T14:43:09;37.03;;;18.50;;
7195;SDS011;3639;51.308;5.624;2023-11-21T14:45:35;37.87;;;18.23;;
7195;SDS011;3639;51.308;5.624;2023-11-21T14:48:00;37.67;;;17.63;;
7195;SDS011;3639;51.308;5.624;2023-11-21T14:50:29;37.30;;;18.00;;
7195;SDS011;3639;51.308;5.624;2023-11-21T14:53:08;38.77;;;17.33;;
7195;SDS011;3639;51.308;5.624;2023-11-21T14:55:36;42.70;;;18.97;;
7195;SDS011;3639;51.308;5.624;2023-11-21T14:58:19;41.07;;;17.67;;
7195;SDS011;3639;51.308;5.624;2023-11-21T15:01:00;45.97;;;21.27;;
7195;SDS011;3639;51.308;5.624;2023-11-21T15:03:26;41.13;;;19.73;;
7195;SDS011;3639;51.308;5.624;2023-11-21T15:06:08;44.07;;;19.30;;
7195;SDS011;3639;51.308;5.624;2023-11-21T15:08:45;47.97;;;19.83;;